Time;durP1;ratioP1;P1;durP2;ratioP2;P2;SDS_P1;SDS_P2;PMS_P1;PMS_P2;Temp;Humidity;BMP_temperature;BMP_pressure;BME280_temperature;BME280_humidity;BME280_pressure;Samples;Min_cycle;Max_cycle;Signal;HPM_P1;HPM_P2
2023/09/07 00:01:13;;;;;;;9.05;4.50;;;19.20;99.90;;;;;;5012552;28;20664;-59
2023/09/07 00:03:41;;;;;;;4.85;4.45;;;19.10;99.90;;;;;;5012948;28;20230;-59
2023/09/07 00:06:11;;;;;;;7.57;4.80;;;19.10;99.90;;;;;;5013653;28;20249;-59
2023/09/07 00:08:39;;;;;;;6.50;4.75;;;19.00;99.90;;;;;;5014662;28;20242;-60
2023/09/07 00:11:07;;;;;;;5.88;4.20;;;18.90;99.90;;;;;;5017793;28;20249;-59
2023/09/07 00:13:35;;;;;;;7.82;4.80;;;18.90;99.90;;;;;;5023033;28;20707;-59
2023/09/07 00:16:04;;;;;;;11.60;4.78;;;18.80;99.90;;;;;;5021894;28;20661;-59
2023/09/07 00:18:32;;;;;;;6.05;4.45;;;18.70;99.90;;;;;;5033830;28;20268;-59
2023/09/07 00:21:00;;;;;;;5.15;4.53;;;18.60;99.90;;;;;;5009031;28;20668;-58
2023/09/07 00:23:30;;;;;;;5.57;5.07;;;18.60;99.90;;;;;;5013339;28;20230;-59
2023/09/07 00:25:57;;;;;;;12.43;5.18;;;18.60;99.90;;;;;;5029207;28;20206;-60
2023/09/07 00:28:25;;;;;;;10.30;5.03;;;18.50;99.90;;;;;;5033193;28;20233;-60
2023/09/07 00:30:53;;;;;;;6.22;4.85;;;18.40;99.90;;;;;;5018277;28;20239;-60
2023/09/07 00:33:21;;;;;;;6.13;5.18;;;18.40;99.90;;;;;;5013762;28;20323;-60
2023/09/07 00:35:49;;;;;;;6.40;4.70;;;18.40;99.90;;;;;;5013621;28;20230;-59
2023/09/07 00:38:17;;;;;;;7.05;5.00;;;18.30;99.90;;;;;;5013731;28;20234;-59
2023/09/07 00:40:46;;;;;;;5.32;4.72;;;18.20;99.90;;;;;;5013701;28;20301;-59
2023/09/07 00:43:14;;;;;;;6.80;5.07;;;18.20;99.90;;;;;;5012461;28;20230;-58
2023/09/07 00:45:42;;;;;;;7.32;5.15;;;18.10;99.90;;;;;;5013591;28;20203;-59
2023/09/07 00:48:12;;;;;;;6.00;5.40;;;18.10;99.90;;;;;;5013314;28;20207;-58
2023/09/07 00:50:41;;;;;;;12.20;4.97;;;18.00;99.90;;;;;;5012757;28;20656;-58
2023/09/07 00:53:09;;;;;;;5.40;4.90;;;18.00;99.90;;;;;;5012174;28;20285;-58
2023/09/07 00:55:36;;;;;;;6.35;5.30;;;18.00;99.90;;;;;;5013127;28;20294;-58
2023/09/07 00:58:06;;;;;;;7.60;4.78;;;18.00;99.90;;;;;;5016266;28;20276;-59
2023/09/07 01:00:34;;;;;;;6.85;4.57;;;18.00;99.90;;;;;;5023648;28;20579;-59
2023/09/07 01:03:03;;;;;;;5.38;4.75;;;17.90;99.90;;;;;;5020919;28;20261;-59
2023/09/07 01:05:35;;;;;;;8.13;4.70;;;17.90;99.90;;;;;;5015269;28;20211;-59
2023/09/07 01:08:07;;;;;;;4.75;4.30;;;17.90;99.90;;;;;;5023748;28;20377;-59
2023/09/07 01:10:35;;;;;;;5.88;5.00;;;17.90;99.90;;;;;;5011000;28;20203;-59
2023/09/07 01:13:04;;;;;;;5.25;4.65;;;17.80;99.90;;;;;;5020712;28;20257;-59
2023/09/07 01:15:33;;;;;;;10.00;4.90;;;17.80;99.90;;;;;;5032460;28;20241;-58
2023/09/07 01:18:01;;;;;;;4.65;4.10;;;17.70;99.90;;;;;;5032438;28;20213;-59
2023/09/07 01:20:48;;;;;;;4.68;4.38;;;17.70;99.90;;;;;;5006813;28;20640;-60
2023/09/07 01:23:17;;;;;;;5.03;4.50;;;17.70;99.90;;;;;;5012211;28;20673;-59
2023/09/07 01:25:45;;;;;;;6.03;4.60;;;17.70;99.90;;;;;;5012389;28;20262;-59
2023/09/07 01:28:15;;;;;;;5.93;4.70;;;17.70;99.90;;;;;;5012551;28;20218;-59
2023/09/07 01:30:43;;;;;;;4.47;4.07;;;17.70;99.90;;;;;;5012697;28;20207;-59
2023/09/07 01:33:10;;;;;;;6.70;4.30;;;17.60;99.90;;;;;;5012253;28;20265;-59
2023/09/07 01:35:38;;;;;;;4.75;4.45;;;17.60;99.90;;;;;;5012298;28;20265;-59
2023/09/07 01:38:06;;;;;;;9.73;4.47;;;17.60;99.90;;;;;;5012202;28;20202;-59
2023/09/07 01:40:36;;;;;;;8.60;4.07;;;17.60;99.90;;;;;;5012348;28;20207;-59
2023/09/07 01:43:04;;;;;;;5.10;4.55;;;17.60;99.90;;;;;;5011973;28;20309;-60
2023/09/07 01:45:32;;;;;;;8.32;4.03;;;17.60;99.90;;;;;;5011887;28;20238;-58
2023/09/07 01:48:00;;;;;;;5.88;4.00;;;17.60;99.90;;;;;;5009708;28;20264;-60
2023/09/07 01:50:28;;;;;;;6.25;3.88;;;17.50;99.90;;;;;;5012386;28;20703;-60
2023/09/07 01:52:56;;;;;;;7.32;4.63;;;17.50;99.90;;;;;;5011702;28;20280;-59
2023/09/07 01:55:23;;;;;;;8.52;4.00;;;17.40;99.90;;;;;;5011731;28;20231;-59
2023/09/07 01:57:53;;;;;;;4.53;4.07;;;17.40;99.90;;;;;;5012078;28;20221;-60
2023/09/07 02:00:21;;;;;;;10.40;4.47;;;17.40;99.90;;;;;;5012229;28;20286;-58
2023/09/07 02:02:48;;;;;;;5.05;4.20;;;17.30;99.90;;;;;;5009863;28;20227;-59
2023/09/07 02:05:16;;;;;;;4.18;3.88;;;17.30;99.90;;;;;;5011173;28;20650;-59
2023/09/07 02:07:44;;;;;;;6.63;4.45;;;17.20;99.90;;;;;;5012101;28;20199;-59
2023/09/07 02:10:13;;;;;;;6.10;4.03;;;17.20;99.90;;;;;;5028960;28;20216;-58
2023/09/07 02:12:41;;;;;;;4.13;3.75;;;17.20;99.90;;;;;;5015733;28;20226;-59
2023/09/07 02:15:10;;;;;;;4.43;4.07;;;17.20;99.90;;;;;;5015757;28;20643;-59
2023/09/07 02:17:38;;;;;;;5.80;4.60;;;17.20;99.90;;;;;;5015587;28;20696;-57
2023/09/07 02:20:10;;;;;;;6.82;4.45;;;17.20;99.90;;;;;;5015822;28;20215;-59
2023/09/07 02:22:38;;;;;;;5.68;4.18;;;17.20;99.90;;;;;;5015788;28;20223;-59
2023/09/07 02:25:07;;;;;;;4.53;3.92;;;17.20;99.90;;;;;;5015403;28;20233;-59
2023/09/07 02:27:36;;;;;;;6.10;3.85;;;17.30;99.90;;;;;;5015610;28;20211;-58
2023/09/07 02:30:04;;;;;;;5.72;4.18;;;17.30;99.90;;;;;;5015837;28;20303;-59
2023/09/07 02:32:34;;;;;;;4.65;3.42;;;17.30;99.90;;;;;;5015346;28;20231;-59
2023/09/07 02:35:02;;;;;;;7.68;4.22;;;17.30;99.90;;;;;;5015097;28;20660;-59
2023/09/07 02:37:30;;;;;;;5.72;3.50;;;17.40;99.90;;;;;;5015446;28;20206;-59
2023/09/07 02:39:58;;;;;;;5.65;3.83;;;17.40;99.90;;;;;;5015274;28;20591;-59
2023/09/07 02:42:25;;;;;;;5.03;3.45;;;17.40;99.90;;;;;;5015115;28;20318;-58
2023/09/07 02:44:53;;;;;;;4.18;3.78;;;17.40;99.90;;;;;;5020860;28;20226;-58
2023/09/07 02:47:21;;;;;;;4.47;4.07;;;17.40;99.90;;;;;;5034570;28;20229;-57
2023/09/07 02:49:51;;;;;;;6.07;4.05;;;17.40;99.90;;;;;;5035051;28;20245;-59
2023/09/07 02:52:18;;;;;;;11.48;4.10;;;17.50;99.90;;;;;;5034613;28;20272;-59
2023/09/07 02:54:46;;;;;;;3.80;3.47;;;17.50;99.90;;;;;;5034782;28;20288;-60
2023/09/07 02:57:14;;;;;;;8.55;4.40;;;17.50;99.90;;;;;;5034527;28;20250;-59
2023/09/07 02:59:42;;;;;;;5.88;4.25;;;17.50;99.90;;;;;;5034720;28;20234;-59
2023/09/07 03:02:10;;;;;;;7.20;3.83;;;17.40;99.90;;;;;;5023535;28;20712;-58
2023/09/07 03:04:38;;;;;;;6.00;4.40;;;17.40;99.90;;;;;;5006897;28;20701;-59
2023/09/07 03:07:07;;;;;;;5.25;4.20;;;17.40;99.90;;;;;;5014437;28;20275;-56
2023/09/07 03:09:35;;;;;;;4.35;4.05;;;17.50;99.90;;;;;;5026005;28;20206;-59
2023/09/07 03:12:03;;;;;;;5.40;3.80;;;17.50;99.90;;;;;;5018354;28;20277;-59
2023/09/07 03:14:31;;;;;;;5.10;3.85;;;17.50;99.90;;;;;;5014389;28;20297;-59
2023/09/07 03:16:59;;;;;;;4.55;4.15;;;17.50;99.90;;;;;;5014581;28;20298;-59
2023/09/07 03:19:27;;;;;;;4.15;3.80;;;17.40;99.90;;;;;;5014726;28;20219;-57
2023/09/07 03:21:55;;;;;;;4.85;3.80;;;17.40;99.90;;;;;;5013932;28;20238;-57
2023/09/07 03:24:26;;;;;;;7.70;4.32;;;17.40;99.90;;;;;;5014072;28;20234;-57
2023/09/07 03:26:54;;;;;;;5.45;3.60;;;17.40;99.90;;;;;;5013946;28;20307;-56
2023/09/07 03:29:22;;;;;;;4.10;3.70;;;17.40;99.90;;;;;;5014372;28;20230;-56
2023/09/07 03:31:50;;;;;;;3.75;3.45;;;17.40;99.90;;;;;;5012652;28;20692;-57
2023/09/07 03:34:19;;;;;;;4.38;3.88;;;17.40;99.90;;;;;;5013748;28;20211;-57
2023/09/07 03:36:47;;;;;;;3.83;3.63;;;17.40;99.90;;;;;;5022592;28;20572;-57
2023/09/07 03:39:15;;;;;;;4.18;3.83;;;17.40;99.90;;;;;;5029701;28;20264;-57
2023/09/07 03:41:44;;;;;;;6.53;4.30;;;17.40;99.90;;;;;;5014042;28;20674;-58
2023/09/07 03:44:12;;;;;;;4.18;3.67;;;17.40;99.90;;;;;;5014197;28;20338;-56
2023/09/07 03:46:40;;;;;;;7.80;3.80;;;17.40;99.90;;;;;;5013837;28;20253;-57
2023/09/07 03:49:08;;;;;;;6.47;4.00;;;17.40;99.90;;;;;;5013755;28;20214;-56
2023/09/07 03:51:36;;;;;;;6.80;3.80;;;17.40;99.90;;;;;;5013895;28;20226;-58
2023/09/07 03:54:04;;;;;;;4.57;4.28;;;17.40;99.90;;;;;;5013624;28;20234;-56
2023/09/07 03:56:32;;;;;;;4.65;4.25;;;17.40;99.90;;;;;;5013725;28;20289;-57
2023/09/07 03:59:01;;;;;;;4.47;3.95;;;17.40;99.90;;;;;;5013736;28;20242;-57
2023/09/07 04:01:29;;;;;;;4.00;3.70;;;17.30;99.90;;;;;;5014075;28;20289;-57
2023/09/07 04:03:57;;;;;;;6.60;3.88;;;17.30;99.90;;;;;;5018834;28;20225;-57
2023/09/07 04:06:25;;;;;;;4.78;4.38;;;17.30;99.90;;;;;;5012955;28;20234;-57
2023/09/07 04:08:53;;;;;;;5.53;4.47;;;17.30;99.90;;;;;;5018106;28;20293;-56
2023/09/07 04:11:21;;;;;;;5.57;4.15;;;17.30;99.90;;;;;;5031679;28;20205;-57
2023/09/07 04:13:49;;;;;;;4.57;3.45;;;17.30;99.90;;;;;;5033134;28;20253;-57
2023/09/07 04:16:18;;;;;;;6.05;4.05;;;17.30;99.90;;;;;;5032792;28;20735;-57
2023/09/07 04:18:46;;;;;;;7.47;4.13;;;17.30;99.90;;;;;;5032913;28;20206;-57
2023/09/07 04:21:14;;;;;;;4.30;3.92;;;17.30;99.90;;;;;;5033039;28;20724;-58
2023/09/07 04:23:42;;;;;;;4.40;4.10;;;17.30;99.90;;;;;;5030659;28;20715;-56
2023/09/07 04:26:10;;;;;;;4.68;4.28;;;17.20;99.90;;;;;;5002648;28;20228;-56
2023/09/07 04:28:38;;;;;;;4.03;3.60;;;17.20;99.90;;;;;;5008601;28;20209;-57
2023/09/07 04:31:06;;;;;;;4.82;4.20;;;17.20;99.90;;;;;;5007051;28;20214;-57
2023/09/07 04:33:36;;;;;;;8.05;4.05;;;17.20;99.90;;;;;;5004597;28;20251;-57
2023/09/07 04:36:09;;;;;;;4.32;3.92;;;17.20;99.90;;;;;;5012597;28;20257;-57
2023/09/07 04:38:37;;;;;;;4.40;4.10;;;17.30;99.90;;;;;;5023634;28;20260;-57
2023/09/07 04:41:08;;;;;;;4.63;4.22;;;17.30;99.90;;;;;;5032993;28;20293;-57
2023/09/07 04:43:36;;;;;;;5.22;4.45;;;17.30;99.90;;;;;;5032515;28;20238;-57
2023/09/07 04:46:04;;;;;;;4.93;4.53;;;17.30;99.90;;;;;;5025521;28;20227;-57
2023/09/07 04:48:34;;;;;;;9.05;3.60;;;17.30;99.90;;;;;;5011930;28;20222;-57
2023/09/07 04:51:04;;;;;;;5.47;3.75;;;17.30;99.90;;;;;;5012780;28;20207;-57
2023/09/07 04:53:32;;;;;;;10.15;4.45;;;17.30;99.90;;;;;;5016383;28;20289;-57
2023/09/07 04:56:00;;;;;;;4.32;3.60;;;17.30;99.90;;;;;;5019821;28;20238;-57
2023/09/07 04:58:28;;;;;;;10.98;4.35;;;17.30;99.90;;;;;;5012479;28;20230;-56
2023/09/07 05:01:02;;;;;;;5.35;4.07;;;17.30;99.90;;;;;;5012949;28;20214;-57
2023/09/07 05:03:30;;;;;;;4.35;3.83;;;17.20;99.90;;;;;;5010565;28;20724;-57
2023/09/07 05:05:58;;;;;;;5.35;3.75;;;17.20;99.90;;;;;;5012086;28;20226;-57
2023/09/07 05:08:27;;;;;;;5.28;4.03;;;17.20;99.90;;;;;;5021600;28;20906;-56
2023/09/07 05:10:56;;;;;;;4.00;3.55;;;17.20;99.90;;;;;;5026596;28;20257;-56
2023/09/07 05:13:24;;;;;;;7.82;4.78;;;17.20;99.90;;;;;;5002878;28;20227;-58
2023/09/07 05:15:52;;;;;;;8.98;3.78;;;17.20;99.90;;;;;;5005142;28;20227;-56
2023/09/07 05:18:21;;;;;;;5.28;3.83;;;17.20;99.90;;;;;;5010840;28;20246;-57
2023/09/07 05:20:51;;;;;;;8.75;4.05;;;17.30;99.90;;;;;;5011774;28;20202;-57
2023/09/07 05:23:19;;;;;;;6.63;4.30;;;17.30;99.90;;;;;;5016677;28;20656;-56
2023/09/07 05:25:52;;;;;;;7.40;4.50;;;17.30;99.90;;;;;;5014482;28;20235;-57
2023/09/07 05:28:20;;;;;;;6.97;4.38;;;17.40;99.90;;;;;;5020153;28;20221;-58
2023/09/07 05:30:49;;;;;;;5.68;4.20;;;17.40;99.90;;;;;;5032002;28;20293;-59
2023/09/07 05:33:18;;;;;;;5.15;4.13;;;17.40;99.90;;;;;;5038930;22;20644;-55
2023/09/07 05:35:46;;;;;;;8.88;4.55;;;17.40;99.90;;;;;;5027990;28;20212;-54
2023/09/07 05:38:14;;;;;;;5.47;4.57;;;17.50;99.90;;;;;;5022072;28;20293;-55
2023/09/07 05:40:43;;;;;;;13.52;4.70;;;17.50;99.90;;;;;;5028013;28;20201;-55
2023/09/07 05:43:13;;;;;;;7.40;4.70;;;17.50;99.90;;;;;;5024380;28;20207;-59
2023/09/07 05:45:41;;;;;;;7.57;4.38;;;17.60;99.90;;;;;;5030134;28;20226;-57
2023/09/07 05:48:09;;;;;;;9.90;4.57;;;17.60;99.90;;;;;;5046209;28;20744;-58
2023/09/07 05:50:38;;;;;;;7.85;4.47;;;17.60;99.90;;;;;;5051491;28;20580;-57
2023/09/07 05:53:06;;;;;;;7.78;4.85;;;17.70;99.90;;;;;;5045299;28;20216;-56
2023/09/07 05:55:35;;;;;;;4.90;4.43;;;17.70;99.90;;;;;;5031470;28;20289;-56
2023/09/07 05:58:05;;;;;;;4.47;4.00;;;17.80;99.90;;;;;;5031468;28;20207;-57
2023/09/07 06:00:34;;;;;;;7.55;4.78;;;17.80;99.90;;;;;;5031704;28;20276;-56
2023/09/07 06:03:03;;;;;;;7.65;4.55;;;17.80;99.90;;;;;;5031304;28;20690;-57
2023/09/07 06:05:31;;;;;;;6.75;4.47;;;17.80;99.90;;;;;;5031064;28;20289;-56
2023/09/07 06:07:59;;;;;;;7.28;4.88;;;17.80;99.90;;;;;;5031519;28;20256;-55
2023/09/07 06:10:28;;;;;;;5.20;4.05;;;17.80;99.90;;;;;;5031511;28;20293;-56
2023/09/07 06:12:56;;;;;;;7.20;4.47;;;17.90;99.90;;;;;;5031187;28;20305;-57
2023/09/07 06:15:25;;;;;;;5.72;4.18;;;17.90;99.90;;;;;;5031113;28;20205;-57
2023/09/07 06:17:55;;;;;;;7.55;4.25;;;17.90;99.90;;;;;;5031123;28;20202;-56
2023/09/07 06:20:23;;;;;;;8.82;3.95;;;18.00;99.90;;;;;;5039371;28;20202;-57
2023/09/07 06:22:51;;;;;;;8.43;5.30;;;18.00;99.90;;;;;;5051235;28;20213;-57
2023/09/07 06:25:20;;;;;;;4.80;4.47;;;18.10;99.90;;;;;;5050930;28;20244;-56
2023/09/07 06:27:48;;;;;;;11.18;5.00;;;18.10;99.90;;;;;;5051301;28;20249;-56
2023/09/07 06:30:16;;;;;;;10.45;4.15;;;18.20;99.90;;;;;;5051140;28;20288;-56
2023/09/07 06:32:44;;;;;;;7.78;4.80;;;18.30;99.90;;;;;;5050900;28;20205;-57
2023/09/07 06:35:14;;;;;;;13.85;4.40;;;18.30;99.90;;;;;;5050803;28;20256;-58
2023/09/07 06:37:43;;;;;;;7.25;4.22;;;18.40;99.90;;;;;;5052264;28;20206;-55
2023/09/07 06:40:11;;;;;;;7.78;4.80;;;18.50;99.90;;;;;;5051769;28;20202;-57
2023/09/07 06:42:39;;;;;;;4.32;3.92;;;18.50;99.90;;;;;;5051252;28;20682;-56
2023/09/07 06:45:09;;;;;;;4.68;4.20;;;18.60;99.90;;;;;;5051205;28;20253;-56
2023/09/07 06:47:37;;;;;;;5.43;4.32;;;18.60;99.90;;;;;;5051424;28;20278;-58
2023/09/07 06:50:06;;;;;;;6.18;4.45;;;18.70;99.90;;;;;;5037785;28;20304;-59
2023/09/07 06:52:35;;;;;;;7.35;4.20;;;18.80;99.90;;;;;;5031509;28;20297;-57
2023/09/07 06:55:03;;;;;;;6.70;4.07;;;18.90;99.90;;;;;;5031341;28;20253;-59
2023/09/07 06:57:33;;;;;;;6.72;4.13;;;18.90;99.90;;;;;;5033431;28;20199;-57
2023/09/07 07:00:01;;;;;;;9.30;4.07;;;19.00;99.90;;;;;;5035721;28;20202;-57
2023/09/07 07:02:29;;;;;;;4.03;3.83;;;19.10;99.90;;;;;;5035413;28;20323;-59
2023/09/07 07:04:57;;;;;;;4.30;3.72;;;19.20;99.90;;;;;;5035001;28;20222;-58
2023/09/07 07:07:25;;;;;;;5.82;3.88;;;19.30;99.90;;;;;;5035145;28;20226;-59
2023/09/07 07:09:54;;;;;;;4.82;4.38;;;19.30;99.90;;;;;;5035044;28;20673;-58
2023/09/07 07:12:22;;;;;;;7.43;3.92;;;19.40;99.90;;;;;;5035313;28;20225;-56
2023/09/07 07:14:50;;;;;;;3.80;3.47;;;19.50;99.90;;;;;;5034544;28;20276;-59
2023/09/07 07:17:18;;;;;;;9.68;4.15;;;19.60;99.90;;;;;;5034945;28;20289;-57
2023/09/07 07:19:46;;;;;;;4.15;3.88;;;19.70;99.90;;;;;;5034603;28;20296;-56
2023/09/07 07:22:14;;;;;;;9.93;4.35;;;19.80;99.90;;;;;;5034821;28;20202;-56
2023/09/07 07:24:44;;;;;;;7.60;4.50;;;19.90;99.90;;;;;;5034639;28;20321;-60
2023/09/07 07:27:13;;;;;;;5.78;3.65;;;20.00;99.90;;;;;;5034470;28;20283;-58
2023/09/07 07:29:41;;;;;;;8.13;3.60;;;20.00;99.90;;;;;;5034454;28;20288;-57
2023/09/07 07:32:09;;;;;;;4.60;4.20;;;20.10;99.90;;;;;;5034979;28;20264;-55
2023/09/07 07:34:37;;;;;;;4.53;4.22;;;20.20;99.90;;;;;;5034328;28;20230;-56
2023/09/07 07:37:05;;;;;;;6.45;3.83;;;20.20;99.90;;;;;;5033788;28;20248;-56
2023/09/07 07:39:33;;;;;;;5.28;3.72;;;20.30;99.90;;;;;;5034041;28;20206;-56
2023/09/07 07:42:00;;;;;;;3.80;3.60;;;20.40;99.90;;;;;;5034214;28;20229;-56
2023/09/07 07:44:30;;;;;;;5.20;4.25;;;20.50;99.90;;;;;;5033658;28;20784;-57
2023/09/07 07:46:58;;;;;;;4.35;3.80;;;20.60;99.90;;;;;;5033809;28;20855;-55
2023/09/07 07:49:27;;;;;;;4.18;3.80;;;20.60;99.90;;;;;;5031780;28;20758;-57
2023/09/07 07:51:57;;;;;;;4.47;3.97;;;20.80;99.90;;;;;;5030688;28;20238;-57
2023/09/07 07:54:25;;;;;;;7.88;3.90;;;20.90;99.90;;;;;;5029323;28;20229;-55
2023/09/07 07:56:53;;;;;;;4.18;3.88;;;21.00;99.90;;;;;;5023743;28;20202;-56
2023/09/07 07:59:21;;;;;;;7.45;4.00;;;21.10;99.90;;;;;;5031464;28;20297;-56
2023/09/07 08:01:50;;;;;;;9.40;4.40;;;21.20;99.90;;;;;;5026739;28;20214;-59
2023/09/07 08:04:19;;;;;;;8.57;4.45;;;21.30;99.90;;;;;;5029929;28;20232;-59
2023/09/07 08:06:47;;;;;;;4.95;4.30;;;21.40;99.90;;;;;;5030487;28;20769;-58
2023/09/07 08:09:15;;;;;;;4.50;4.10;;;21.50;99.90;;;;;;5030615;28;20283;-59
2023/09/07 08:11:44;;;;;;;4.22;3.97;;;21.60;99.90;;;;;;5031518;28;20210;-58
2023/09/07 08:14:12;;;;;;;4.97;4.00;;;21.70;99.90;;;;;;5032839;28;20218;-58
2023/09/07 08:16:40;;;;;;;7.47;4.45;;;21.90;99.90;;;;;;5039870;28;20267;-57
2023/09/07 08:19:10;;;;;;;10.07;4.55;;;22.00;99.90;;;;;;5027330;28;20206;-56
2023/09/07 08:21:38;;;;;;;6.82;4.50;;;22.10;99.90;;;;;;5034282;28;20210;-57
2023/09/07 08:24:06;;;;;;;6.07;4.30;;;22.20;99.90;;;;;;5052936;28;20221;-58
2023/09/07 08:26:34;;;;;;;5.30;4.28;;;22.30;99.90;;;;;;5052435;28;20209;-57
2023/09/07 08:29:05;;;;;;;4.28;3.97;;;22.50;99.90;;;;;;5035303;28;20206;-56
2023/09/07 08:31:33;;;;;;;4.47;4.00;;;22.50;99.90;;;;;;5033707;28;20234;-58
2023/09/07 08:34:03;;;;;;;3.90;3.45;;;22.60;99.90;;;;;;5029172;28;20275;-58
2023/09/07 08:36:33;;;;;;;4.30;3.88;;;22.80;99.90;;;;;;5032562;28;20217;-62
2023/09/07 08:39:07;;;;;;;5.43;4.20;;;22.90;99.90;;;;;;5032798;28;20194;-57
2023/09/07 08:41:41;;;;;;;4.25;3.85;;;23.00;99.90;;;;;;5032550;28;20753;-60
2023/09/07 08:44:27;;;;;;;9.35;4.57;;;23.10;99.90;;;;;;5032584;28;20229;-57
2023/09/07 08:46:55;;;;;;;4.88;4.05;;;23.20;99.90;;;;;;5051840;28;20201;-58
2023/09/07 08:49:23;;;;;;;4.88;4.10;;;23.30;99.90;;;;;;5035014;28;20328;-57
2023/09/07 08:51:52;;;;;;;4.70;4.25;;;23.50;99.90;;;;;;5032080;28;20297;-58
2023/09/07 08:54:20;;;;;;;6.18;4.20;;;23.60;99.90;;;;;;5026126;28;20317;-56
2023/09/07 08:56:48;;;;;;;4.45;3.95;;;23.80;99.90;;;;;;5021834;28;20285;-58
2023/09/07 08:59:16;;;;;;;8.57;4.40;;;24.00;99.90;;;;;;5030073;28;20202;-60
2023/09/07 09:01:44;;;;;;;8.40;4.38;;;24.10;99.90;;;;;;5048334;28;20300;-58
2023/09/07 09:04:12;;;;;;;4.40;4.00;;;24.20;99.90;;;;;;5031991;28;20340;-58
2023/09/07 09:06:40;;;;;;;6.13;4.00;;;24.30;99.90;;;;;;5032831;28;20291;-56
2023/09/07 09:09:12;;;;;;;5.43;4.00;;;24.50;99.90;;;;;;5052049;28;20894;-57
2023/09/07 09:11:40;;;;;;;5.85;3.88;;;24.60;99.90;;;;;;5052356;28;20209;-58
2023/09/07 09:14:08;;;;;;;4.45;4.05;;;24.70;99.90;;;;;;5037605;28;20292;-57
2023/09/07 09:16:36;;;;;;;4.88;4.20;;;24.90;99.90;;;;;;5040531;28;20227;-56
2023/09/07 09:19:04;;;;;;;4.25;3.83;;;25.00;99.90;;;;;;5051312;28;20225;-57
2023/09/07 09:21:32;;;;;;;7.85;4.00;;;25.20;99.90;;;;;;5052101;28;20243;-57
2023/09/07 09:24:00;;;;;;;5.63;3.80;;;25.30;99.90;;;;;;5033788;28;20314;-57
2023/09/07 09:26:30;;;;;;;6.90;3.90;;;25.50;99.90;;;;;;5031718;28;20213;-56
2023/09/07 09:28:58;;;;;;;5.75;3.78;;;25.60;99.90;;;;;;5024223;28;20250;-59
2023/09/07 09:31:26;;;;;;;6.80;3.97;;;25.80;99.90;;;;;;5028718;28;20206;-60
2023/09/07 09:33:54;;;;;;;4.85;4.00;;;25.90;99.90;;;;;;5030491;28;20644;-59
2023/09/07 09:36:22;;;;;;;5.22;3.70;;;26.10;99.90;;;;;;5038017;28;20240;-57
2023/09/07 09:38:52;;;;;;;4.65;3.80;;;26.40;99.90;;;;;;5051559;28;20266;-57
2023/09/07 09:41:21;;;;;;;4.72;4.22;;;26.40;99.90;;;;;;5049390;28;20232;-60
2023/09/07 09:43:51;;;;;;;4.35;4.05;;;26.50;99.90;;;;;;5029502;28;20217;-58
2023/09/07 09:46:19;;;;;;;7.75;7.13;;;26.70;99.90;;;;;;5031192;28;20209;-58
2023/09/07 09:48:47;;;;;;;6.65;4.03;;;27.00;99.90;;;;;;5031545;28;20320;-57
2023/09/07 09:51:15;;;;;;;10.02;8.50;;;27.20;99.90;;;;;;5031742;28;20202;-57
2023/09/07 09:53:43;;;;;;;4.85;4.43;;;27.50;99.90;;;;;;5031426;28;20264;-56
2023/09/07 09:56:11;;;;;;;6.05;5.15;;;27.70;99.90;;;;;;5031407;28;20245;-58
2023/09/07 09:58:40;;;;;;;9.32;5.10;;;28.00;99.90;;;;;;5031455;28;20223;-58
2023/09/07 10:01:09;;;;;;;4.10;3.53;;;28.20;99.90;;;;;;5031013;28;20210;-57
2023/09/07 10:03:44;;;;;;;5.25;4.18;;;28.10;99.90;;;;;;5030410;28;20249;-59
2023/09/07 10:06:13;;;;;;;6.35;3.40;;;28.30;99.90;;;;;;5030615;28;20197;-58
2023/09/07 10:08:41;;;;;;;4.13;3.85;;;28.40;99.90;;;;;;5027942;28;20257;-59
2023/09/07 10:11:10;;;;;;;5.93;3.55;;;28.80;99.90;;;;;;5029622;28;20244;-59
2023/09/07 10:13:38;;;;;;;4.13;3.83;;;29.00;99.90;;;;;;5039544;28;20221;-58
2023/09/07 10:16:08;;;;;;;5.18;3.72;;;29.30;99.90;;;;;;5051205;28;20251;-58
2023/09/07 10:18:38;;;;;;;4.05;3.72;;;29.60;99.90;;;;;;5034840;28;20718;-62
2023/09/07 10:21:06;;;;;;;5.50;3.95;;;29.80;99.90;;;;;;5035440;28;20720;-56
2023/09/07 10:23:38;;;;;;;3.78;3.58;;;30.00;99.90;;;;;;5042644;28;20737;-58
2023/09/07 10:26:11;;;;;;;6.97;4.20;;;30.20;99.90;;;;;;5020998;28;20202;-57
2023/09/07 10:28:39;;;;;;;8.15;4.35;;;30.30;99.90;;;;;;5023009;28;20229;-57
2023/09/07 10:31:07;;;;;;;5.03;3.60;;;30.40;99.90;;;;;;5027749;28;20209;-58
2023/09/07 10:33:36;;;;;;;4.35;3.70;;;30.50;99.90;;;;;;5031076;28;20233;-58
2023/09/07 10:36:06;;;;;;;8.20;3.67;;;30.80;99.90;;;;;;5034721;28;20286;-58
2023/09/07 10:38:34;;;;;;;4.88;3.45;;;31.10;99.90;;;;;;5035074;28;20206;-60
2023/09/07 10:41:04;;;;;;;5.68;3.85;;;31.10;99.90;;;;;;5046860;28;20217;-58
2023/09/07 10:43:33;;;;;;;3.60;3.35;;;31.30;99.90;;;;;;5054883;28;20228;-60
2023/09/07 10:46:02;;;;;;;4.65;3.30;;;31.40;99.90;;;;;;5054611;28;20248;-59
2023/09/07 10:48:31;;;;;;;4.75;3.60;;;31.60;99.90;;;;;;5054470;28;20707;-60
2023/09/07 10:50:59;;;;;;;4.70;3.60;;;31.80;99.90;;;;;;5055082;28;20569;-57
2023/09/07 10:53:30;;;;;;;6.72;4.20;;;32.20;99.90;;;;;;5054807;28;20274;-58
2023/09/07 10:55:59;;;;;;;5.72;3.78;;;32.50;99.90;;;;;;5054391;28;20293;-59
2023/09/07 10:58:28;;;;;;;4.40;3.97;;;32.60;99.90;;;;;;5041488;28;20286;-57
2023/09/07 11:00:58;;;;;;;6.13;3.28;;;32.80;99.90;;;;;;5038052;28;20691;-57
2023/09/07 11:03:27;;;;;;;5.45;3.35;;;32.70;99.90;;;;;;5049184;28;20765;-56
2023/09/07 11:05:55;;;;;;;3.78;3.33;;;32.60;99.90;;;;;;5054490;28;20245;-59
2023/09/07 11:08:23;;;;;;;4.00;3.65;;;32.60;99.90;;;;;;5054270;28;20232;-58
2023/09/07 11:10:52;;;;;;;5.88;3.22;;;32.80;99.90;;;;;;5054746;28;20292;-58
2023/09/07 11:13:20;;;;;;;6.20;3.22;;;32.80;99.90;;;;;;5051181;28;20324;-57
2023/09/07 11:15:48;;;;;;;4.22;3.60;;;32.90;99.90;;;;;;5053924;28;20646;-56
2023/09/07 11:18:20;;;;;;;5.55;3.63;;;33.10;99.90;;;;;;5054309;28;20206;-60
2023/09/07 11:20:48;;;;;;;3.80;3.50;;;32.70;99.80;;;;;;5054479;28;20236;-58
2023/09/07 11:23:17;;;;;;;5.72;3.42;;;32.70;99.60;;;;;;5054326;28;20292;-58
2023/09/07 11:25:45;;;;;;;5.47;3.90;;;32.90;99.90;;;;;;5053824;28;20211;-61
2023/09/07 11:28:15;;;;;;;3.50;3.20;;;33.30;99.90;;;;;;5047732;28;20289;-59
2023/09/07 11:30:49;;;;;;;5.82;4.28;;;33.50;98.40;;;;;;5048556;28;20271;-58
2023/09/07 11:33:17;;;;;;;6.50;3.47;;;33.80;99.10;;;;;;5052041;28;20248;-60
2023/09/07 11:35:45;;;;;;;6.07;3.85;;;34.10;98.80;;;;;;5054184;22;20231;-63
2023/09/07 11:38:14;;;;;;;7.72;3.92;;;34.30;97.50;;;;;;5008670;28;20290;-62
2023/09/07 11:40:44;;;;;;;4.47;4.07;;;34.50;97.70;;;;;;5023011;28;20230;-63
2023/09/07 11:43:13;;;;;;;4.35;3.28;;;34.60;95.20;;;;;;5032114;28;20232;-62
2023/09/07 11:45:41;;;;;;;5.22;3.90;;;34.90;95.70;;;;;;5032721;28;20229;-64
2023/09/07 11:48:10;;;;;;;3.40;3.10;;;35.10;94.30;;;;;;5031111;28;20683;-63
2023/09/07 11:50:38;;;;;;;4.03;3.50;;;35.10;95.40;;;;;;5023144;28;20285;-63
2023/09/07 11:53:07;;;;;;;5.13;3.35;;;35.20;95.70;;;;;;5025559;28;20214;-62
2023/09/07 11:55:35;;;;;;;7.68;3.22;;;35.50;94.40;;;;;;5015412;28;20229;-62
2023/09/07 11:58:04;;;;;;;6.20;3.78;;;35.60;94.30;;;;;;5015789;28;20213;-62
2023/09/07 12:00:33;;;;;;;3.67;3.05;;;35.60;93.40;;;;;;5013187;28;20199;-63
2023/09/07 12:03:01;;;;;;;7.07;3.40;;;35.80;93.40;;;;;;5012751;28;20252;-62
2023/09/07 12:05:30;;;;;;;4.63;2.95;;;35.90;92.90;;;;;;5012648;28;20798;-62
2023/09/07 12:07:58;;;;;;;6.38;3.20;;;36.00;92.30;;;;;;5012577;28;20732;-63
2023/09/07 12:10:26;;;;;;;7.85;3.53;;;36.00;91.20;;;;;;5012463;28;20222;-63
2023/09/07 12:12:54;;;;;;;3.58;3.15;;;35.60;91.30;;;;;;5012376;28;20206;-62
2023/09/07 12:15:22;;;;;;;4.13;3.17;;;35.40;91.10;;;;;;5011938;28;20226;-62
2023/09/07 12:17:54;;;;;;;5.72;3.58;;;35.50;91.80;;;;;;5010347;28;20291;-63
2023/09/07 12:20:22;;;;;;;5.75;3.10;;;35.70;92.10;;;;;;5025586;28;20225;-63
2023/09/07 12:22:51;;;;;;;6.13;3.30;;;35.80;91.10;;;;;;5031842;28;20206;-62
2023/09/07 12:25:19;;;;;;;3.80;3.50;;;35.60;90.40;;;;;;5031776;28;20283;-62
2023/09/07 12:27:47;;;;;;;3.40;3.20;;;35.50;90.90;;;;;;5028138;28;20583;-62
2023/09/07 12:30:20;;;;;;;5.28;3.47;;;35.60;92.60;;;;;;5031644;28;20317;-62
2023/09/07 12:32:48;;;;;;;3.10;2.90;;;35.80;91.70;;;;;;5016857;28;20219;-64
2023/09/07 12:35:19;;;;;;;3.45;3.25;;;35.90;90.30;;;;;;5031648;28;20234;-63
2023/09/07 12:37:47;;;;;;;4.03;2.75;;;36.20;90.10;;;;;;5032173;28;20217;-62
2023/09/07 12:40:15;;;;;;;4.57;3.08;;;36.60;89.30;;;;;;5031817;28;20260;-62
2023/09/07 12:42:45;;;;;;;4.35;3.50;;;36.90;88.60;;;;;;5029653;28;20210;-62
2023/09/07 12:45:14;;;;;;;11.07;3.70;;;36.90;85.90;;;;;;5016912;28;20227;-63
2023/09/07 12:47:42;;;;;;;9.05;3.13;;;36.80;88.90;;;;;;5017736;28;20216;-62
2023/09/07 12:50:10;;;;;;;4.22;3.45;;;37.00;87.00;;;;;;5011854;28;20305;-62
2023/09/07 12:52:39;;;;;;;3.58;3.20;;;37.10;86.10;;;;;;5011816;28;20253;-63